sensor_id;sensor_type;location;lat;lon;timestamp;P1;durP1;ratioP1;P2;durP2;ratioP2
4903;SDS011;2467;48.142;11.616;2023-05-29T00:00:26;12.13;;;9.85;;
4903;SDS011;2467;48.142;11.616;2023-05-29T00:01:00;12.10;;;9.80;;
4903;SDS011;2467;48.142;11.616;2023-05-29T00:01:32;10.15;;;9.15;;
4903;SDS011;2467;48.142;11.616;2023-05-29T00:02:04;11.30;;;10.10;;
4903;SDS011;2467;48.142;11.616;2023-05-29T00:02:37;11.73;;;10.50;;
4903;SDS011;2467;48.142;11.616;2023-05-29T00:03:09;10.85;;;9.73;;
4903;SDS011;2467;48.142;11.616;2023-05-29T00:03:41;10.98;;;9.88;;
4903;SDS011;2467;48.142;11.616;2023-05-29T00:04:14;11.00;;;9.85;;
4903;SDS011;2467;48.142;11.616;2023-05-29T00:04:46;10.63;;;9.57;;
4903;SDS011;2467;48.142;11.616;2023-05-29T00:05:18;13.43;;;10.63;;
4903;SDS011;2467;48.142;11.616;2023-05-29T00:05:51;10.85;;;9.70;;
4903;SDS011;2467;48.142;11.616;2023-05-29T00:06:24;10.85;;;9.68;;
4903;SDS011;2467;48.142;11.616;2023-05-29T00:06:56;12.55;;;10.75;;
4903;SDS011;2467;48.142;11.616;2023-05-29T00:07:29;10.95;;;9.85;;
4903;SDS011;2467;48.142;11.616;2023-05-29T00:08:01;10.48;;;9.48;;
4903;SDS011;2467;48.142;11.616;2023-05-29T00:08:33;10.80;;;9.70;;
4903;SDS011;2467;48.142;11.616;2023-05-29T00:09:06;11.32;;;10.25;;
4903;SDS011;2467;48.142;11.616;2023-05-29T00:09:38;11.30;;;10.00;;
4903;SDS011;2467;48.142;11.616;2023-05-29T00:10:10;12.38;;;9.13;;
4903;SDS011;2467;48.142;11.616;2023-05-29T00:10:44;12.80;;;10.50;;
4903;SDS011;2467;48.142;11.616;2023-05-29T00:11:16;10.90;;;9.73;;
4903;SDS011;2467;48.142;11.616;2023-05-29T00:11:49;11.43;;;10.18;;
4903;SDS011;2467;48.142;11.616;2023-05-29T00:12:23;12.25;;;10.05;;
4903;SDS011;2467;48.142;11.616;2023-05-29T00:12:55;11.63;;;10.45;;
4903;SDS011;2467;48.142;11.616;2023-05-29T00:13:28;11.70;;;10.10;;
4903;SDS011;2467;48.142;11.616;2023-05-29T00:14:01;12.57;;;10.25;;
4903;SDS011;2467;48.142;11.616;2023-05-29T00:14:34;11.60;;;10.43;;
4903;SDS011;2467;48.142;11.616;2023-05-29T00:15:06;12.82;;;10.20;;
4903;SDS011;2467;48.142;11.616;2023-05-29T00:15:41;12.43;;;10.75;;
4903;SDS011;2467;48.142;11.616;2023-05-29T00:16:12;10.45;;;9.45;;
4903;SDS011;2467;48.142;11.616;2023-05-29T00:16:45;11.55;;;10.45;;
4903;SDS011;2467;48.142;11.616;2023-05-29T00:17:18;11.63;;;9.88;;
4903;SDS011;2467;48.142;11.616;2023-05-29T00:17:51;10.57;;;9.57;;
4903;SDS011;2467;48.142;11.616;2023-05-29T00:18:23;12.32;;;10.68;;
4903;SDS011;2467;48.142;11.616;2023-05-29T00:18:56;11.48;;;10.30;;
4903;SDS011;2467;48.142;11.616;2023-05-29T00:19:28;11.57;;;10.38;;
4903;SDS011;2467;48.142;11.616;2023-05-29T00:20:00;12.80;;;11.50;;
4903;SDS011;2467;48.142;11.616;2023-05-29T00:20:37;11.70;;;10.05;;
4903;SDS011;2467;48.142;11.616;2023-05-29T00:21:10;12.52;;;10.40;;
4903;SDS011;2467;48.142;11.616;2023-05-29T00:21:42;11.35;;;10.32;;
4903;SDS011;2467;48.142;11.616;2023-05-29T00:22:14;11.70;;;10.40;;
4903;SDS011;2467;48.142;11.616;2023-05-29T00:22:47;11.60;;;9.80;;
4903;SDS011;2467;48.142;11.616;2023-05-29T00:23:19;12.32;;;11.02;;
4903;SDS011;2467;48.142;11.616;2023-05-29T00:23:52;10.90;;;9.43;;
4903;SDS011;2467;48.142;11.616;2023-05-29T00:24:25;11.15;;;9.85;;
4903;SDS011;2467;48.142;11.616;2023-05-29T00:24:57;10.30;;;9.38;;
4903;SDS011;2467;48.142;11.616;2023-05-29T00:25:29;11.13;;;9.90;;
4903;SDS011;2467;48.142;11.616;2023-05-29T00:26:02;12.13;;;10.88;;
4903;SDS011;2467;48.142;11.616;2023-05-29T00:26:34;10.88;;;9.80;;
4903;SDS011;2467;48.142;11.616;2023-05-29T00:27:07;12.02;;;10.73;;
4903;SDS011;2467;48.142;11.616;2023-05-29T00:27:40;13.77;;;10.65;;
4903;SDS011;2467;48.142;11.616;2023-05-29T00:28:14;11.02;;;9.82;;
4903;SDS011;2467;48.142;11.616;2023-05-29T00:28:46;13.77;;;10.25;;
4903;SDS011;2467;48.142;11.616;2023-05-29T00:29:19;10.73;;;9.65;;
4903;SDS011;2467;48.142;11.616;2023-05-29T00:29:53;13.18;;;10.35;;
4903;SDS011;2467;48.142;11.616;2023-05-29T00:30:25;10.63;;;9.52;;
4903;SDS011;2467;48.142;11.616;2023-05-29T00:30:57;12.23;;;10.35;;
4903;SDS011;2467;48.142;11.616;2023-05-29T00:31:30;12.13;;;10.80;;
4903;SDS011;2467;48.142;11.616;2023-05-29T00:32:02;11.60;;;10.20;;
4903;SDS011;2467;48.142;11.616;2023-05-29T00:32:34;11.90;;;10.65;;
4903;SDS011;2467;48.142;11.616;2023-05-29T00:33:07;11.43;;;10.23;;
4903;SDS011;2467;48.142;11.616;2023-05-29T00:33:39;10.88;;;9.77;;
4903;SDS011;2467;48.142;11.616;2023-05-29T00:34:11;10.93;;;9.77;;
4903;SDS011;2467;48.142;11.616;2023-05-29T00:34:44;12.70;;;10.32;;
4903;SDS011;2467;48.142;11.616;2023-05-29T00:35:16;11.90;;;10.65;;
4903;SDS011;2467;48.142;11.616;2023-05-29T00:35:48;11.68;;;10.48;;
4903;SDS011;2467;48.142;11.616;2023-05-29T00:36:21;12.43;;;11.05;;
4903;SDS011;2467;48.142;11.616;2023-05-29T00:36:54;11.15;;;9.50;;
4903;SDS011;2467;48.142;11.616;2023-05-29T00:37:26;13.35;;;11.80;;
4903;SDS011;2467;48.142;11.616;2023-05-29T00:37:59;13.80;;;11.00;;
4903;SDS011;2467;48.142;11.616;2023-05-29T00:38:31;12.52;;;10.75;;
4903;SDS011;2467;48.142;11.616;2023-05-29T00:39:03;12.50;;;10.68;;
4903;SDS011;2467;48.142;11.616;2023-05-29T00:39:36;12.38;;;11.18;;
4903;SDS011;2467;48.142;11.616;2023-05-29T00:40:08;15.85;;;12.18;;
4903;SDS011;2467;48.142;11.616;2023-05-29T00:40:41;13.88;;;11.07;;
4903;SDS011;2467;48.142;11.616;2023-05-29T00:41:14;10.93;;;9.70;;
4903;SDS011;2467;48.142;11.616;2023-05-29T00:41:47;13.75;;;11.32;;
4903;SDS011;2467;48.142;11.616;2023-05-29T00:42:22;14.77;;;10.40;;
4903;SDS011;2467;48.142;11.616;2023-05-29T00:42:53;11.27;;;10.18;;
4903;SDS011;2467;48.142;11.616;2023-05-29T00:43:26;14.95;;;11.40;;
4903;SDS011;2467;48.142;11.616;2023-05-29T00:43:58;15.25;;;12.55;;
4903;SDS011;2467;48.142;11.616;2023-05-29T00:44:31;13.73;;;12.02;;
4903;SDS011;2467;48.142;11.616;2023-05-29T00:45:03;12.90;;;11.25;;
4903;SDS011;2467;48.142;11.616;2023-05-29T00:45:37;13.75;;;11.15;;
4903;SDS011;2467;48.142;11.616;2023-05-29T00:46:09;11.77;;;10.68;;
4903;SDS011;2467;48.142;11.616;2023-05-29T00:46:44;12.07;;;10.82;;
4903;SDS011;2467;48.142;11.616;2023-05-29T00:47:17;15.25;;;11.40;;
4903;SDS011;2467;48.142;11.616;2023-05-29T00:47:49;14.27;;;12.73;;
4903;SDS011;2467;48.142;11.616;2023-05-29T00:48:21;11.50;;;10.30;;
4903;SDS011;2467;48.142;11.616;2023-05-29T00:48:54;13.77;;;10.45;;
4903;SDS011;2467;48.142;11.616;2023-05-29T00:49:26;12.63;;;11.30;;
4903;SDS011;2467;48.142;11.616;2023-05-29T00:49:58;12.80;;;11.50;;
4903;SDS011;2467;48.142;11.616;2023-05-29T00:50:31;12.93;;;11.60;;
4903;SDS011;2467;48.142;11.616;2023-05-29T00:51:04;15.98;;;13.05;;
4903;SDS011;2467;48.142;11.616;2023-05-29T00:51:36;18.52;;;11.82;;
4903;SDS011;2467;48.142;11.616;2023-05-29T00:52:10;10.90;;;9.85;;
4903;SDS011;2467;48.142;11.616;2023-05-29T00:52:43;12.63;;;11.38;;
4903;SDS011;2467;48.142;11.616;2023-05-29T00:53:16;12.43;;;9.82;;
4903;SDS011;2467;48.142;11.616;2023-05-29T00:53:49;12.27;;;11.02;;
4903;SDS011;2467;48.142;11.616;2023-05-29T00:54:23;12.02;;;10.88;;
4903;SDS011;2467;48.142;11.616;2023-05-29T00:54:59;11.93;;;10.63;;
4903;SDS011;2467;48.142;11.616;2023-05-29T00:55:33;12.75;;;11.40;;
4903;SDS011;2467;48.142;11.616;2023-05-29T00:56:06;12.48;;;10.70;;
4903;SDS011;2467;48.142;11.616;2023-05-29T00:56:38;12.20;;;11.00;;
4903;SDS011;2467;48.142;11.616;2023-05-29T00:57:13;12.40;;;11.10;;
4903;SDS011;2467;48.142;11.616;2023-05-29T00:57:47;12.52;;;11.23;;
4903;SDS011;2467;48.142;11.616;2023-05-29T00:58:20;14.02;;;11.25;;
4903;SDS011;2467;48.142;11.616;2023-05-29T00:58:53;12.80;;;11.50;;
4903;SDS011;2467;48.142;11.616;2023-05-29T00:59:25;12.48;;;11.18;;
4903;SDS011;2467;48.142;11.616;2023-05-29T01:00:00;11.73;;;9.88;;
4903;SDS011;2467;48.142;11.616;2023-05-29T01:00:36;11.77;;;10.57;;
4903;SDS011;2467;48.142;11.616;2023-05-29T01:01:09;11.98;;;10.77;;
4903;SDS011;2467;48.142;11.616;2023-05-29T01:01:43;14.88;;;12.45;;
4903;SDS011;2467;48.142;11.616;2023-05-29T01:02:15;11.45;;;10.35;;
4903;SDS011;2467;48.142;11.616;2023-05-29T01:02:49;12.38;;;10.00;;
4903;SDS011;2467;48.142;11.616;2023-05-29T01:03:24;12.20;;;10.60;;
4903;SDS011;2467;48.142;11.616;2023-05-29T01:03:56;13.05;;;11.25;;
4903;SDS011;2467;48.142;11.616;2023-05-29T01:04:30;14.38;;;10.25;;
4903;SDS011;2467;48.142;11.616;2023-05-29T01:05:05;13.57;;;11.55;;
4903;SDS011;2467;48.142;11.616;2023-05-29T01:05:37;13.10;;;11.20;;
4903;SDS011;2467;48.142;11.616;2023-05-29T01:06:09;12.65;;;11.35;;
4903;SDS011;2467;48.142;11.616;2023-05-29T01:06:41;16.67;;;11.70;;
4903;SDS011;2467;48.142;11.616;2023-05-29T01:07:15;13.98;;;10.82;;
4903;SDS011;2467;48.142;11.616;2023-05-29T01:07:46;13.02;;;11.60;;
4903;SDS011;2467;48.142;11.616;2023-05-29T01:08:20;13.18;;;10.65;;
4903;SDS011;2467;48.142;11.616;2023-05-29T01:08:53;14.55;;;11.43;;
4903;SDS011;2467;48.142;11.616;2023-05-29T01:09:24;15.55;;;12.77;;
4903;SDS011;2467;48.142;11.616;2023-05-29T01:09:56;11.98;;;10.77;;
4903;SDS011;2467;48.142;11.616;2023-05-29T01:10:29;12.15;;;10.65;;
4903;SDS011;2467;48.142;11.616;2023-05-29T01:11:04;12.90;;;11.27;;
4903;SDS011;2467;48.142;11.616;2023-05-29T01:11:45;13.30;;;12.02;;
4903;SDS011;2467;48.142;11.616;2023-05-29T01:12:27;12.10;;;10.95;;
4903;SDS011;2467;48.142;11.616;2023-05-29T01:13:08;11.68;;;10.57;;
4903;SDS011;2467;48.142;11.616;2023-05-29T01:13:45;11.45;;;10.45;;
4903;SDS011;2467;48.142;11.616;2023-05-29T01:14:21;12.60;;;11.30;;
4903;SDS011;2467;48.142;11.616;2023-05-29T01:15:12;12.43;;;10.27;;
4903;SDS011;2467;48.142;11.616;2023-05-29T01:15:51;15.30;;;11.23;;
4903;SDS011;2467;48.142;11.616;2023-05-29T01:16:29;12.52;;;11.32;;
4903;SDS011;2467;48.142;11.616;2023-05-29T01:17:07;13.10;;;11.02;;
4903;SDS011;2467;48.142;11.616;2023-05-29T01:17:48;11.20;;;10.15;;
4903;SDS011;2467;48.142;11.616;2023-05-29T01:18:34;11.95;;;10.75;;
4903;SDS011;2467;48.142;11.616;2023-05-29T01:19:16;11.55;;;10.38;;
4903;SDS011;2467;48.142;11.616;2023-05-29T01:20:05;12.80;;;11.43;;
4903;SDS011;2467;48.142;11.616;2023-05-29T01:20:46;11.88;;;10.68;;
4903;SDS011;2467;48.142;11.616;2023-05-29T01:21:31;13.85;;;12.40;;
4903;SDS011;2467;48.142;11.616;2023-05-29T01:22:23;11.75;;;10.55;;
4903;SDS011;2467;48.142;11.616;2023-05-29T01:23:19;12.50;;;11.32;;
4903;SDS011;2467;48.142;11.616;2023-05-29T01:24:02;11.85;;;10.60;;
4903;SDS011;2467;48.142;11.616;2023-05-29T01:24:45;12.88;;;11.57;;
4903;SDS011;2467;48.142;11.616;2023-05-29T01:25:23;14.35;;;10.60;;
4903;SDS011;2467;48.142;11.616;2023-05-29T01:26:11;11.73;;;10.52;;
4903;SDS011;2467;48.142;11.616;2023-05-29T01:26:56;10.82;;;9.70;;
4903;SDS011;2467;48.142;11.616;2023-05-29T01:27:31;11.77;;;10.57;;
4903;SDS011;2467;48.142;11.616;2023-05-29T01:28:04;13.70;;;12.32;;
4903;SDS011;2467;48.142;11.616;2023-05-29T01:28:41;13.60;;;12.20;;
4903;SDS011;2467;48.142;11.616;2023-05-29T01:29:18;15.13;;;11.90;;
4903;SDS011;2467;48.142;11.616;2023-05-29T01:29:54;11.93;;;10.65;;
4903;SDS011;2467;48.142;11.616;2023-05-29T01:30:28;11.65;;;10.45;;
4903;SDS011;2467;48.142;11.616;2023-05-29T01:31:01;14.00;;;10.85;;
4903;SDS011;2467;48.142;11.616;2023-05-29T01:31:35;11.88;;;10.68;;
4903;SDS011;2467;48.142;11.616;2023-05-29T01:32:11;11.55;;;10.38;;
4903;SDS011;2467;48.142;11.616;2023-05-29T01:32:43;13.63;;;12.30;;
4903;SDS011;2467;48.142;11.616;2023-05-29T01:33:15;12.70;;;10.80;;
4903;SDS011;2467;48.142;11.616;2023-05-29T01:33:51;15.35;;;11.95;;
4903;SDS011;2467;48.142;11.616;2023-05-29T01:34:24;12.68;;;10.95;;
4903;SDS011;2467;48.142;11.616;2023-05-29T01:34:56;11.32;;;10.23;;
4903;SDS011;2467;48.142;11.616;2023-05-29T01:35:27;12.65;;;11.35;;
4903;SDS011;2467;48.142;11.616;2023-05-29T01:36:00;13.40;;;12.02;;
4903;SDS011;2467;48.142;11.616;2023-05-29T01:36:32;14.00;;;11.65;;
4903;SDS011;2467;48.142;11.616;2023-05-29T01:37:04;13.15;;;11.13;;
4903;SDS011;2467;48.142;11.616;2023-05-29T01:37:37;13.02;;;11.75;;
4903;SDS011;2467;48.142;11.616;2023-05-29T01:38:09;13.00;;;11.80;;
4903;SDS011;2467;48.142;11.616;2023-05-29T01:38:41;12.57;;;10.80;;
4903;SDS011;2467;48.142;11.616;2023-05-29T01:39:13;11.50;;;10.30;;
4903;SDS011;2467;48.142;11.616;2023-05-29T01:39:46;12.07;;;10.98;;
4903;SDS011;2467;48.142;11.616;2023-05-29T01:40:18;12.32;;;11.05;;
4903;SDS011;2467;48.142;11.616;2023-05-29T01:40:50;12.05;;;10.75;;
4903;SDS011;2467;48.142;11.616;2023-05-29T01:41:23;12.10;;;10.90;;
4903;SDS011;2467;48.142;11.616;2023-05-29T01:41:58;12.75;;;11.65;;
4903;SDS011;2467;48.142;11.616;2023-05-29T01:42:31;12.50;;;10.80;;
4903;SDS011;2467;48.142;11.616;2023-05-29T01:43:04;13.10;;;11.75;;
4903;SDS011;2467;48.142;11.616;2023-05-29T01:43:38;12.88;;;11.57;;
4903;SDS011;2467;48.142;11.616;2023-05-29T01:44:10;12.02;;;10.95;;
4903;SDS011;2467;48.142;11.616;2023-05-29T01:44:43;12.60;;;11.30;;
4903;SDS011;2467;48.142;11.616;2023-05-29T01:45:17;12.00;;;10.77;;
4903;SDS011;2467;48.142;11.616;2023-05-29T01:45:49;11.35;;;10.25;;
4903;SDS011;2467;48.142;11.616;2023-05-29T01:46:22;12.75;;;11.45;;
4903;SDS011;2467;48.142;11.616;2023-05-29T01:46:56;13.40;;;12.00;;
4903;SDS011;2467;48.142;11.616;2023-05-29T01:47:30;11.88;;;10.68;;
4903;SDS011;2467;48.142;11.616;2023-05-29T01:48:02;16.58;;;11.85;;
4903;SDS011;2467;48.142;11.616;2023-05-29T01:48:35;11.98;;;10.88;;
4903;SDS011;2467;48.142;11.616;2023-05-29T01:49:08;12.38;;;11.07;;
4903;SDS011;2467;48.142;11.616;2023-05-29T01:49:42;13.80;;;10.98;;
4903;SDS011;2467;48.142;11.616;2023-05-29T01:50:17;12.73;;;11.07;;
4903;SDS011;2467;48.142;11.616;2023-05-29T01:50:49;12.82;;;10.63;;
4903;SDS011;2467;48.142;11.616;2023-05-29T01:51:21;12.43;;;11.13;;
4903;SDS011;2467;48.142;11.616;2023-05-29T01:51:54;12.98;;;11.70;;
4903;SDS011;2467;48.142;11.616;2023-05-29T01:52:26;11.52;;;10.38;;
4903;SDS011;2467;48.142;11.616;2023-05-29T01:52:58;11.60;;;10.40;;
4903;SDS011;2467;48.142;11.616;2023-05-29T01:53:30;11.73;;;10.63;;
4903;SDS011;2467;48.142;11.616;2023-05-29T01:54:02;12.68;;;11.40;;
4903;SDS011;2467;48.142;11.616;2023-05-29T01:54:36;14.10;;;11.88;;
4903;SDS011;2467;48.142;11.616;2023-05-29T01:55:08;11.43;;;10.32;;
4903;SDS011;2467;48.142;11.616;2023-05-29T01:55:40;12.90;;;11.60;;
4903;SDS011;2467;48.142;11.616;2023-05-29T01:56:13;12.23;;;10.57;;
4903;SDS011;2467;48.142;11.616;2023-05-29T01:56:45;12.60;;;11.40;;
4903;SDS011;2467;48.142;11.616;2023-05-29T01:57:19;11.60;;;10.52;;
4903;SDS011;2467;48.142;11.616;2023-05-29T01:57:52;12.90;;;11.05;;
4903;SDS011;2467;48.142;11.616;2023-05-29T01:58:26;12.05;;;10.75;;
4903;SDS011;2467;48.142;11.616;2023-05-29T01:59:00;13.38;;;10.95;;
4903;SDS011;2467;48.142;11.616;2023-05-29T01:59:34;12.75;;;10.43;;
4903;SDS011;2467;48.142;11.616;2023-05-29T02:00:09;12.73;;;10.60;;
4903;SDS011;2467;48.142;11.616;2023-05-29T02:00:41;12.70;;;11.38;;
4903;SDS011;2467;48.142;11.616;2023-05-29T02:01:13;14.70;;;11.77;;
4903;SDS011;2467;48.142;11.616;2023-05-29T02:01:47;12.82;;;11.50;;
4903;SDS011;2467;48.142;11.616;2023-05-29T02:02:21;12.52;;;10.75;;
4903;SDS011;2467;48.142;11.616;2023-05-29T02:02:53;12.98;;;11.55;;
4903;SDS011;2467;48.142;11.616;2023-05-29T02:03:26;12.68;;;11.45;;
4903;SDS011;2467;48.142;11.616;2023-05-29T02:04:00;14.35;;;10.85;;
4903;SDS011;2467;48.142;11.616;2023-05-29T02:04:32;12.80;;;10.63;;
4903;SDS011;2467;48.142;11.616;2023-05-29T02:05:04;12.13;;;10.93;;
4903;SDS011;2467;48.142;11.616;2023-05-29T02:05:38;12.57;;;11.32;;
4903;SDS011;2467;48.142;11.616;2023-05-29T02:06:10;11.63;;;10.52;;
4903;SDS011;2467;48.142;11.616;2023-05-29T02:06:42;12.10;;;10.73;;
4903;SDS011;2467;48.142;11.616;2023-05-29T02:07:15;10.65;;;9.55;;
4903;SDS011;2467;48.142;11.616;2023-05-29T02:07:47;10.40;;;9.43;;
4903;SDS011;2467;48.142;11.616;2023-05-29T02:08:19;12.00;;;10.80;;
4903;SDS011;2467;48.142;11.616;2023-05-29T02:08:51;10.25;;;9.35;;
4903;SDS011;2467;48.142;11.616;2023-05-29T02:09:23;11.90;;;10.75;;
4903;SDS011;2467;48.142;11.616;2023-05-29T02:09:56;12.98;;;10.40;;
4903;SDS011;2467;48.142;11.616;2023-05-29T02:10:29;11.60;;;9.85;;
4903;SDS011;2467;48.142;11.616;2023-05-29T02:11:01;12.43;;;11.23;;
4903;SDS011;2467;48.142;11.616;2023-05-29T02:11:33;12.38;;;11.07;;
4903;SDS011;2467;48.142;11.616;2023-05-29T02:12:06;16.35;;;11.32;;
4903;SDS011;2467;48.142;11.616;2023-05-29T02:12:40;13.25;;;11.90;;
4903;SDS011;2467;48.142;11.616;2023-05-29T02:13:12;11.45;;;10.20;;
4903;SDS011;2467;48.142;11.616;2023-05-29T02:13:44;11.77;;;10.57;;
4903;SDS011;2467;48.142;11.616;2023-05-29T02:14:16;13.50;;;11.07;;
4903;SDS011;2467;48.142;11.616;2023-05-29T02:14:48;12.98;;;11.63;;
4903;SDS011;2467;48.142;11.616;2023-05-29T02:15:21;12.18;;;10.35;;
4903;SDS011;2467;48.142;11.616;2023-05-29T02:15:53;12.45;;;11.15;;
4903;SDS011;2467;48.142;11.616;2023-05-29T02:16:26;11.25;;;10.25;;
4903;SDS011;2467;48.142;11.616;2023-05-29T02:16:59;11.73;;;10.20;;
4903;SDS011;2467;48.142;11.616;2023-05-29T02:17:32;12.40;;;10.70;;
4903;SDS011;2467;48.142;11.616;2023-05-29T02:18:05;11.13;;;10.05;;
4903;SDS011;2467;48.142;11.616;2023-05-29T02:18:40;10.35;;;9.25;;
4903;SDS011;2467;48.142;11.616;2023-05-29T02:19:12;11.57;;;10.50;;
4903;SDS011;2467;48.142;11.616;2023-05-29T02:19:44;11.45;;;9.40;;
4903;SDS011;2467;48.142;11.616;2023-05-29T02:20:17;11.35;;;10.15;;
4903;SDS011;2467;48.142;11.616;2023-05-29T02:20:49;11.65;;;10.43;;
4903;SDS011;2467;48.142;11.616;2023-05-29T02:21:21;13.25;;;10.48;;
4903;SDS011;2467;48.142;11.616;2023-05-29T02:21:53;12.02;;;10.82;;
4903;SDS011;2467;48.142;11.616;2023-05-29T02:22:26;12.23;;;11.02;;
4903;SDS011;2467;48.142;11.616;2023-05-29T02:22:57;18.38;;;12.15;;
4903;SDS011;2467;48.142;11.616;2023-05-29T02:23:29;12.02;;;10.60;;
4903;SDS011;2467;48.142;11.616;2023-05-29T02:24:01;12.02;;;10.82;;
4903;SDS011;2467;48.142;11.616;2023-05-29T02:24:34;12.13;;;9.80;;
4903;SDS011;2467;48.142;11.616;2023-05-29T02:25:06;11.55;;;10.30;;
4903;SDS011;2467;48.142;11.616;2023-05-29T02:25:38;13.25;;;11.20;;
4903;SDS011;2467;48.142;11.616;2023-05-29T02:26:11;10.60;;;9.50;;
4903;SDS011;2467;48.142;11.616;2023-05-29T02:26:45;10.68;;;9.65;;
4903;SDS011;2467;48.142;11.616;2023-05-29T02:27:20;11.82;;;10.60;;
4903;SDS011;2467;48.142;11.616;2023-05-29T02:27:53;11.20;;;9.90;;
4903;SDS011;2467;48.142;11.616;2023-05-29T02:28:25;10.98;;;9.57;;
4903;SDS011;2467;48.142;11.616;2023-05-29T02:28:58;12.07;;;10.82;;
4903;SDS011;2467;48.142;11.616;2023-05-29T02:29:30;12.98;;;10.18;;
4903;SDS011;2467;48.142;11.616;2023-05-29T02:30:02;11.68;;;10.68;;
4903;SDS011;2467;48.142;11.616;2023-05-29T02:30:36;10.48;;;9.38;;
4903;SDS011;2467;48.142;11.616;2023-05-29T02:31:08;11.48;;;10.45;;
4903;SDS011;2467;48.142;11.616;2023-05-29T02:31:40;16.60;;;9.52;;
4903;SDS011;2467;48.142;11.616;2023-05-29T02:32:13;11.55;;;10.45;;
4903;SDS011;2467;48.142;11.616;2023-05-29T02:32:45;10.60;;;9.65;;
4903;SDS011;2467;48.142;11.616;2023-05-29T02:33:17;12.00;;;9.55;;
4903;SDS011;2467;48.142;11.616;2023-05-29T02:33:51;11.82;;;10.10;;
4903;SDS011;2467;48.142;11.616;2023-05-29T02:34:22;12.07;;;9.98;;
4903;SDS011;2467;48.142;11.616;2023-05-29T02:34:54;10.82;;;9.60;;
4903;SDS011;2467;48.142;11.616;2023-05-29T02:35:26;13.60;;;9.90;;
4903;SDS011;2467;48.142;11.616;2023-05-29T02:35:59;11.30;;;10.15;;
4903;SDS011;2467;48.142;11.616;2023-05-29T02:36:31;12.25;;;10.95;;
4903;SDS011;2467;48.142;11.616;2023-05-29T02:37:03;14.32;;;10.48;;
4903;SDS011;2467;48.142;11.616;2023-05-29T02:37:36;10.93;;;9.77;;
4903;SDS011;2467;48.142;11.616;2023-05-29T02:38:08;11.40;;;10.35;;
4903;SDS011;2467;48.142;11.616;2023-05-29T02:38:40;11.30;;;10.13;;
4903;SDS011;2467;48.142;11.616;2023-05-29T02:39:13;10.82;;;9.65;;
4903;SDS011;2467;48.142;11.616;2023-05-29T02:39:45;12.68;;;10.50;;
4903;SDS011;2467;48.142;11.616;2023-05-29T02:40:17;11.60;;;8.70;;
4903;SDS011;2467;48.142;11.616;2023-05-29T02:40:50;10.50;;;9.50;;
4903;SDS011;2467;48.142;11.616;2023-05-29T02:41:22;9.80;;;8.80;;
4903;SDS011;2467;48.142;11.616;2023-05-29T02:41:54;10.70;;;9.30;;
4903;SDS011;2467;48.142;11.616;2023-05-29T02:42:27;10.25;;;8.95;;
4903;SDS011;2467;48.142;11.616;2023-05-29T02:43:00;11.02;;;9.93;;
4903;SDS011;2467;48.142;11.616;2023-05-29T02:43:32;11.48;;;10.38;;
4903;SDS011;2467;48.142;11.616;2023-05-29T02:44:05;10.90;;;8.77;;
4903;SDS011;2467;48.142;11.616;2023-05-29T02:44:37;11.27;;;9.20;;
4903;SDS011;2467;48.142;11.616;2023-05-29T02:45:09;9.70;;;8.80;;
4903;SDS011;2467;48.142;11.616;2023-05-29T02:45:42;11.73;;;10.23;;
4903;SDS011;2467;48.142;11.616;2023-05-29T02:46:14;10.10;;;9.10;;
4903;SDS011;2467;48.142;11.616;2023-05-29T02:46:46;9.77;;;8.90;;
4903;SDS011;2467;48.142;11.616;2023-05-29T02:47:23;13.60;;;11.13;;
4903;SDS011;2467;48.142;11.616;2023-05-29T02:47:55;12.35;;;11.15;;
4903;SDS011;2467;48.142;11.616;2023-05-29T02:48:27;12.23;;;9.32;;
4903;SDS011;2467;48.142;11.616;2023-05-29T02:49:00;11.15;;;10.00;;
4903;SDS011;2467;48.142;11.616;2023-05-29T02:49:33;11.63;;;10.50;;
4903;SDS011;2467;48.142;11.616;2023-05-29T02:50:05;9.82;;;8.93;;
4903;SDS011;2467;48.142;11.616;2023-05-29T02:50:37;10.77;;;9.77;;
4903;SDS011;2467;48.142;11.616;2023-05-29T02:51:10;10.85;;;9.85;;
4903;SDS011;2467;48.142;11.616;2023-05-29T02:51:42;15.82;;;10.50;;
4903;SDS011;2467;48.142;11.616;2023-05-29T02:52:14;10.40;;;9.48;;
4903;SDS011;2467;48.142;11.616;2023-05-29T02:52:45;11.32;;;9.70;;
4903;SDS011;2467;48.142;11.616;2023-05-29T02:53:18;10.90;;;9.95;;
4903;SDS011;2467;48.142;11.616;2023-05-29T02:53:50;10.70;;;9.60;;
4903;SDS011;2467;48.142;11.616;2023-05-29T02:54:22;10.15;;;9.15;;
4903;SDS011;2467;48.142;11.616;2023-05-29T02:54:55;11.32;;;10.18;;
4903;SDS011;2467;48.142;11.616;2023-05-29T02:55:27;91.78;;;81.88;;
4903;SDS011;2467;48.142;11.616;2023-05-29T02:55:59;60.67;;;54.40;;
4903;SDS011;2467;48.142;11.616;2023-05-29T02:56:33;46.05;;;41.25;;
4903;SDS011;2467;48.142;11.616;2023-05-29T02:57:05;40.88;;;36.55;;
4903;SDS011;2467;48.142;11.616;2023-05-29T02:57:37;43.38;;;38.67;;
4903;SDS011;2467;48.142;11.616;2023-05-29T02:58:11;32.25;;;28.95;;
4903;SDS011;2467;48.142;11.616;2023-05-29T02:58:43;32.63;;;29.13;;
4903;SDS011;2467;48.142;11.616;2023-05-29T02:59:16;21.10;;;18.98;;
4903;SDS011;2467;48.142;11.616;2023-05-29T02:59:49;19.38;;;17.40;;
4903;SDS011;2467;48.142;11.616;2023-05-29T03:00:21;18.55;;;16.77;;
4903;SDS011;2467;48.142;11.616;2023-05-29T03:00:52;16.75;;;14.95;;
4903;SDS011;2467;48.142;11.616;2023-05-29T03:01:24;15.80;;;12.95;;
4903;SDS011;2467;48.142;11.616;2023-05-29T03:01:57;13.10;;;11.63;;
4903;SDS011;2467;48.142;11.616;2023-05-29T03:02:29;14.38;;;11.73;;
4903;SDS011;2467;48.142;11.616;2023-05-29T03:03:01;12.68;;;9.82;;
4903;SDS011;2467;48.142;11.616;2023-05-29T03:03:34;10.23;;;9.25;;
4903;SDS011;2467;48.142;11.616;2023-05-29T03:04:06;10.55;;;9.57;;
4903;SDS011;2467;48.142;11.616;2023-05-29T03:04:38;11.45;;;10.25;;
4903;SDS011;2467;48.142;11.616;2023-05-29T03:05:11;16.08;;;9.82;;
4903;SDS011;2467;48.142;11.616;2023-05-29T03:05:44;12.65;;;9.93;;
4903;SDS011;2467;48.142;11.616;2023-05-29T03:06:17;11.88;;;9.05;;
4903;SDS011;2467;48.142;11.616;2023-05-29T03:06:49;12.55;;;10.18;;
4903;SDS011;2467;48.142;11.616;2023-05-29T03:07:24;13.23;;;9.55;;
4903;SDS011;2467;48.142;11.616;2023-05-29T03:07:56;10.50;;;9.43;;
4903;SDS011;2467;48.142;11.616;2023-05-29T03:08:27;10.02;;;9.13;;
4903;SDS011;2467;48.142;11.616;2023-05-29T03:09:00;10.63;;;9.52;;
4903;SDS011;2467;48.142;11.616;2023-05-29T03:09:32;10.32;;;9.38;;
4903;SDS011;2467;48.142;11.616;2023-05-29T03:10:04;10.63;;;9.52;;
4903;SDS011;2467;48.142;11.616;2023-05-29T03:10:38;11.55;;;9.70;;
4903;SDS011;2467;48.142;11.616;2023-05-29T03:11:10;11.82;;;9.45;;
4903;SDS011;2467;48.142;11.616;2023-05-29T03:11:42;11.60;;;9.85;;
4903;SDS011;2467;48.142;11.616;2023-05-29T03:12:16;10.05;;;9.05;;
4903;SDS011;2467;48.142;11.616;2023-05-29T03:12:50;10.35;;;9.45;;
4903;SDS011;2467;48.142;11.616;2023-05-29T03:13:23;12.35;;;10.60;;
4903;SDS011;2467;48.142;11.616;2023-05-29T03:13:56;9.85;;;8.65;;
4903;SDS011;2467;48.142;11.616;2023-05-29T03:14:28;11.27;;;9.93;;
4903;SDS011;2467;48.142;11.616;2023-05-29T03:15:00;11.02;;;9.93;;
4903;SDS011;2467;48.142;11.616;2023-05-29T03:15:33;11.70;;;9.70;;
4903;SDS011;2467;48.142;11.616;2023-05-29T03:16:05;12.77;;;10.98;;
4903;SDS011;2467;48.142;11.616;2023-05-29T03:16:39;11.18;;;10.05;;
4903;SDS011;2467;48.142;11.616;2023-05-29T03:17:12;11.63;;;9.63;;
4903;SDS011;2467;48.142;11.616;2023-05-29T03:17:44;11.23;;;8.80;;
4903;SDS011;2467;48.142;11.616;2023-05-29T03:18:16;11.02;;;9.88;;
4903;SDS011;2467;48.142;11.616;2023-05-29T03:18:49;11.80;;;10.05;;
4903;SDS011;2467;48.142;11.616;2023-05-29T03:19:21;11.05;;;9.95;;